EGPI/ILY METAR and TAF weather

Enter ICAO airport designator
Station Type Date Time Source
EGPI METAR 2018/04/23 10:50 UTC NOAA

EGPI 231050Z 21012KT 9999 FEW028 BKN034 09/07 Q1008


Station Type Date Time Source
EGPI Decoded METAR 2018/04/23 10:50 UTC NOAA

Islay, United Kingdom (EGPI) 55-40-55N 006-15-24W
Apr 23, 2018 - 06:50 AM EDT / 2018.04.23 1050 UTC
Wind: from the SSW (210 degrees) at 14 MPH (12 KT):0
Visibility: greater than 7 mile(s):0
Sky conditions: mostly cloudy
Temperature: 48 F (9 C)
Dew Point: 44 F (7 C)
Relative Humidity: 87%
Pressure (altimeter): 29.77 in. Hg (1008 hPa)
ob: EGPI 231050Z 21012KT 9999 FEW028 BKN034 09/07 Q1008
cycle: 11

Station Type Date Time Source
EGPI TAF UTC NOAA

Error!


Example: see airport list